Time;durP1;ratioP1;P1;durP2;ratioP2;P2;SDS_P1;SDS_P2;PMS_P1;PMS_P2;Temp;Humidity;BMP_temperature;BMP_pressure;BME280_temperature;BME280_humidity;BME280_pressure;Samples;Min_cycle;Max_cycle;Signal;HPM_P1;HPM_P2
2023/01/19 00:00:59;;;;;;;17.40;6.57;;;;;;;;;;5046595;28;20333;-67
2023/01/19 00:03:24;;;;;;;7.50;3.28;;;;;;;;;;5047034;28;20793;-68
2023/01/19 00:05:50;;;;;;;11.02;4.78;;;;;;;;;;5047466;28;20017;-67
2023/01/19 00:08:16;;;;;;;17.08;7.00;;;;;;;;;;5047354;28;20044;-68
2023/01/19 00:10:42;;;;;;;3.50;1.85;;;;;;;;;;5042124;28;20109;-68
2023/01/19 00:13:07;;;;;;;16.40;5.70;;;;;;;;;;5043430;28;20051;-68
2023/01/19 00:15:32;;;;;;;6.00;3.03;;;;;;;;;;5047621;28;20064;-68
2023/01/19 00:17:58;;;;;;;4.77;2.67;;;;;;;;;;5028052;28;20057;-68
2023/01/19 00:20:23;;;;;;;15.73;6.70;;;;;;;;;;5044770;28;20333;-67
2023/01/19 00:22:49;;;;;;;8.27;4.33;;;;;;;;;;5050809;28;20717;-68
2023/01/19 00:25:15;;;;;;;16.05;6.30;;;;;;;;;;5046589;28;20263;-69
2023/01/19 00:27:40;;;;;;;10.50;4.50;;;;;;;;;;5044154;28;20106;-69
2023/01/19 00:30:06;;;;;;;11.53;5.40;;;;;;;;;;5041909;28;20013;-68
2023/01/19 00:32:31;;;;;;;17.38;7.00;;;;;;;;;;5046639;28;20283;-68
2023/01/19 00:34:56;;;;;;;7.00;3.17;;;;;;;;;;5042968;28;20486;-69
2023/01/19 00:37:21;;;;;;;15.52;7.13;;;;;;;;;;5047458;28;20271;-68
2023/01/19 00:39:47;;;;;;;8.23;3.83;;;;;;;;;;5046381;28;20040;-68
2023/01/19 00:44:56;;;;;;;9.57;3.97;;;;;;;;;;5043211;28;20294;-69
2023/01/19 00:47:21;;;;;;;17.50;4.93;;;;;;;;;;5046339;28;20476;-69
2023/01/19 00:49:46;;;;;;;7.40;4.25;;;;;;;;;;5046087;28;20052;-69
2023/01/19 00:52:11;;;;;;;15.68;6.15;;;;;;;;;;5045721;28;20082;-69
2023/01/19 00:54:36;;;;;;;8.97;4.23;;;;;;;;;;5047256;28;20032;-69
2023/01/19 00:57:02;;;;;;;13.40;6.18;;;;;;;;;;5050250;28;20371;-69
2023/01/19 00:59:27;;;;;;;13.35;4.60;;;;;;;;;;5049593;28;20017;-69
2023/01/19 01:01:52;;;;;;;14.00;6.25;;;;;;;;;;5050027;28;20021;-69
2023/01/19 01:04:18;;;;;;;21.10;7.30;;;;;;;;;;5032135;28;20651;-69
2023/01/19 01:06:43;;;;;;;5.45;3.50;;;;;;;;;;5045782;28;20021;-69
2023/01/19 01:09:10;;;;;;;12.13;4.30;;;;;;;;;;5046244;28;20044;-67
2023/01/19 01:11:39;;;;;;;12.60;4.35;;;;;;;;;;5048717;28;20102;-68
2023/01/19 01:14:05;;;;;;;21.75;5.82;;;;;;;;;;5053413;28;20013;-68
2023/01/19 01:16:30;;;;;;;9.95;2.78;;;;;;;;;;5048930;28;20172;-68
2023/01/19 01:18:55;;;;;;;6.28;2.58;;;;;;;;;;5049507;28;20112;-67
2023/01/19 01:21:20;;;;;;;4.53;2.65;;;;;;;;;;5046304;28;20029;-68
2023/01/19 01:23:45;;;;;;;12.83;6.17;;;;;;;;;;5050086;28;20036;-67
2023/01/19 01:26:10;;;;;;;9.23;4.35;;;;;;;;;;5051347;28;20283;-68
2023/01/19 01:28:36;;;;;;;10.55;4.50;;;;;;;;;;5046113;28;20040;-68
2023/01/19 01:31:01;;;;;;;10.73;4.80;;;;;;;;;;5048787;28;20043;-68
2023/01/19 01:33:26;;;;;;;12.60;5.18;;;;;;;;;;5051077;28;20025;-68
2023/01/19 01:35:51;;;;;;;7.75;2.92;;;;;;;;;;5043545;28;20439;-68
2023/01/19 01:38:16;;;;;;;12.05;5.63;;;;;;;;;;5049341;28;21711;-68
2023/01/19 01:40:43;;;;;;;23.05;6.30;;;;;;;;;;5048859;28;20027;-68
2023/01/19 01:43:12;;;;;;;21.05;7.20;;;;;;;;;;5049661;28;20028;-68
2023/01/19 01:45:38;;;;;;;11.85;6.22;;;;;;;;;;5047359;28;20021;-66
2023/01/19 01:48:10;;;;;;;7.43;3.13;;;;;;;;;;5050220;28;20024;-68
2023/01/19 01:51:22;;;;;;;13.18;5.45;;;;;;;;;;5050159;28;20923;-68
2023/01/19 01:53:29;;;;;;;17.23;4.70;;;;;;;;;;5049408;28;20025;-68
2023/01/19 01:55:54;;;;;;;15.35;5.68;;;;;;;;;;5044937;28;20456;-67
2023/01/19 01:58:20;;;;;;;21.20;6.43;;;;;;;;;;5050301;28;20028;-68
2023/01/19 02:03:31;;;;;;;10.80;5.35;;;;;;;;;;5045276;28;20430;-68
2023/01/19 02:05:59;;;;;;;9.98;4.40;;;;;;;;;;5048180;28;20031;-68
2023/01/19 02:13:55;;;;;;;15.45;6.57;;;;;;;;;;5043952;28;20035;-68
2023/01/19 02:16:21;;;;;;;10.82;4.53;;;;;;;;;;5027801;28;20021;-66
2023/01/19 02:18:46;;;;;;;4.07;2.65;;;;;;;;;;5046250;28;20032;-69
2023/01/19 02:21:22;;;;;;;10.85;4.20;;;;;;;;;;5048691;28;20029;-69
2023/01/19 02:23:54;;;;;;;14.65;5.55;;;;;;;;;;5042133;28;20080;-68
2023/01/19 02:26:20;;;;;;;20.15;8.18;;;;;;;;;;5044269;28;20111;-68
2023/01/19 02:28:49;;;;;;;10.55;4.75;;;;;;;;;;5045870;28;20024;-68
2023/01/19 02:31:14;;;;;;;17.92;6.30;;;;;;;;;;5045223;28;20056;-66
2023/01/19 02:33:40;;;;;;;8.20;3.63;;;;;;;;;;5048279;28;20434;-66
2023/01/19 02:36:07;;;;;;;13.25;6.18;;;;;;;;;;5046425;28;20029;-66
2023/01/19 02:38:32;;;;;;;15.73;4.65;;;;;;;;;;5048868;28;20516;-65
2023/01/19 02:41:00;;;;;;;7.18;4.03;;;;;;;;;;5048317;28;20013;-66
2023/01/19 02:43:26;;;;;;;13.93;6.25;;;;;;;;;;5048019;28;20032;-67
2023/01/19 02:45:52;;;;;;;17.45;6.32;;;;;;;;;;5044679;28;20039;-66
2023/01/19 02:48:17;;;;;;;13.43;6.97;;;;;;;;;;5046374;28;20489;-67
2023/01/19 02:50:46;;;;;;;15.68;6.57;;;;;;;;;;5048089;28;20021;-66
2023/01/19 02:53:30;;;;;;;15.43;6.03;;;;;;;;;;5047839;28;20037;-67
2023/01/19 02:56:03;;;;;;;20.08;7.47;;;;;;;;;;5046809;28;20036;-66
2023/01/19 02:58:35;;;;;;;7.55;3.50;;;;;;;;;;5047913;28;20035;-65
2023/01/19 03:01:11;;;;;;;12.25;4.00;;;;;;;;;;5047803;28;20547;-67
2023/01/19 03:03:55;;;;;;;9.25;4.43;;;;;;;;;;5048346;28;20025;-67
2023/01/19 03:06:48;;;;;;;4.82;2.70;;;;;;;;;;5047600;28;20093;-67
2023/01/19 03:09:36;;;;;;;10.18;5.22;;;;;;;;;;5040392;28;20032;-66
2023/01/19 03:12:13;;;;;;;20.05;5.57;;;;;;;;;;5046913;28;20079;-67
2023/01/19 03:14:41;;;;;;;15.32;5.55;;;;;;;;;;5045646;28;20020;-66
2023/01/19 03:17:07;;;;;;;8.45;2.85;;;;;;;;;;5045852;28;20017;-67
2023/01/19 03:19:37;;;;;;;8.25;3.83;;;;;;;;;;5042604;28;20485;-67
2023/01/19 03:22:12;;;;;;;17.63;6.43;;;;;;;;;;5046530;28;20025;-67
2023/01/19 03:24:39;;;;;;;11.43;5.70;;;;;;;;;;5041118;28;20021;-67
2023/01/19 03:27:33;;;;;;;19.15;5.82;;;;;;;;;;5043124;28;20163;-67
2023/01/19 03:30:00;;;;;;;16.00;5.95;;;;;;;;;;5011952;28;20044;-66
2023/01/19 03:32:29;;;;;;;8.02;3.58;;;;;;;;;;5045204;28;20031;-67
2023/01/19 03:34:55;;;;;;;5.10;3.28;;;;;;;;;;5045330;28;20029;-66
2023/01/19 03:37:21;;;;;;;9.50;3.85;;;;;;;;;;5042900;28;20523;-67
2023/01/19 03:39:46;;;;;;;8.50;3.78;;;;;;;;;;5045350;28;20036;-67
2023/01/19 03:42:13;;;;;;;16.48;6.57;;;;;;;;;;5043802;28;20374;-67
2023/01/19 03:44:39;;;;;;;6.68;2.95;;;;;;;;;;5042075;28;20025;-67
2023/01/19 03:47:05;;;;;;;16.90;4.85;;;;;;;;;;5046695;28;20016;-65
2023/01/19 03:49:30;;;;;;;15.20;3.58;;;;;;;;;;5047417;28;20024;-68
2023/01/19 03:51:57;;;;;;;8.45;4.07;;;;;;;;;;5045940;28;20466;-67
2023/01/19 03:54:22;;;;;;;6.32;2.80;;;;;;;;;;5046884;28;20719;-67
2023/01/19 03:56:48;;;;;;;8.32;3.17;;;;;;;;;;5048018;28;20029;-68
2023/01/19 03:59:16;;;;;;;7.60;4.03;;;;;;;;;;5046371;28;20031;-66
2023/01/19 04:01:41;;;;;;;8.43;2.63;;;;;;;;;;5041551;28;20025;-66
2023/01/19 04:04:07;;;;;;;9.23;2.88;;;;;;;;;;5046857;28;20017;-67
2023/01/19 04:06:33;;;;;;;11.63;3.38;;;;;;;;;;5046106;28;20070;-68
2023/01/19 04:08:58;;;;;;;10.67;3.57;;;;;;;;;;5046274;28;20115;-67
2023/01/19 04:11:23;;;;;;;6.25;4.13;;;;;;;;;;5046205;28;20337;-66
2023/01/19 04:13:49;;;;;;;7.60;3.13;;;;;;;;;;5043306;28;20025;-68
2023/01/19 04:16:18;;;;;;;10.13;4.80;;;;;;;;;;5046536;28;20027;-67
2023/01/19 04:18:43;;;;;;;5.68;2.83;;;;;;;;;;5050471;28;20082;-68
2023/01/19 04:21:09;;;;;;;9.45;3.03;;;;;;;;;;5042917;28;20025;-67
2023/01/19 04:23:34;;;;;;;9.15;4.18;;;;;;;;;;5046142;28;20473;-67
2023/01/19 04:26:01;;;;;;;11.25;4.20;;;;;;;;;;5049343;28;20025;-67
2023/01/19 04:28:27;;;;;;;11.13;4.00;;;;;;;;;;5044790;28;20056;-66
2023/01/19 04:30:52;;;;;;;1.75;1.33;;;;;;;;;;5045660;28;20052;-67
2023/01/19 04:33:18;;;;;;;7.55;3.97;;;;;;;;;;5047730;28;20029;-68
2023/01/19 04:35:44;;;;;;;7.40;2.90;;;;;;;;;;5045111;28;20034;-67
2023/01/19 04:38:09;;;;;;;7.65;3.75;;;;;;;;;;5050232;28;20397;-68
2023/01/19 04:40:34;;;;;;;7.37;2.93;;;;;;;;;;5052355;28;20040;-67
2023/01/19 04:42:59;;;;;;;5.00;3.27;;;;;;;;;;5050596;28;20271;-68
2023/01/19 04:45:24;;;;;;;13.45;5.07;;;;;;;;;;5053289;28;20275;-67
2023/01/19 04:47:50;;;;;;;7.10;2.83;;;;;;;;;;5048981;28;20036;-67
2023/01/19 04:50:16;;;;;;;5.97;2.38;;;;;;;;;;5050244;28;20052;-67
2023/01/19 04:52:41;;;;;;;10.02;4.18;;;;;;;;;;5051437;28;20024;-67
2023/01/19 04:55:07;;;;;;;16.23;5.38;;;;;;;;;;5051219;28;20033;-67
2023/01/19 04:57:32;;;;;;;17.67;5.68;;;;;;;;;;5050815;28;20413;-67
2023/01/19 04:59:57;;;;;;;9.20;4.25;;;;;;;;;;5049661;28;20021;-67
2023/01/19 05:02:23;;;;;;;3.65;2.00;;;;;;;;;;5050195;28;20040;-68
2023/01/19 05:04:48;;;;;;;10.80;3.58;;;;;;;;;;5052839;28;20024;-68
2023/01/19 05:07:13;;;;;;;7.90;3.60;;;;;;;;;;5049329;28;20465;-66
2023/01/19 05:09:38;;;;;;;15.80;4.82;;;;;;;;;;5048989;28;20474;-65
2023/01/19 05:12:04;;;;;;;6.90;3.95;;;;;;;;;;5050055;28;20029;-67
2023/01/19 05:14:30;;;;;;;11.02;5.05;;;;;;;;;;5050631;28;20061;-68
2023/01/19 05:16:55;;;;;;;12.90;5.25;;;;;;;;;;5049000;28;20074;-68
2023/01/19 05:19:20;;;;;;;5.70;3.05;;;;;;;;;;5049008;28;20021;-68
2023/01/19 05:21:45;;;;;;;12.02;4.63;;;;;;;;;;5052302;28;20024;-68
2023/01/19 05:24:11;;;;;;;12.32;4.05;;;;;;;;;;5049758;28;20037;-68
2023/01/19 05:26:36;;;;;;;6.35;3.28;;;;;;;;;;5048276;28;20017;-68
2023/01/19 05:29:01;;;;;;;10.63;6.03;;;;;;;;;;5047411;28;20029;-68
2023/01/19 05:31:26;;;;;;;16.83;6.00;;;;;;;;;;5047432;28;20041;-68
2023/01/19 05:33:52;;;;;;;19.02;7.63;;;;;;;;;;5047906;28;20079;-68
2023/01/19 05:36:17;;;;;;;19.43;6.47;;;;;;;;;;5047802;28;20029;-68
2023/01/19 05:38:42;;;;;;;13.50;5.97;;;;;;;;;;5048683;28;20291;-69
2023/01/19 05:41:07;;;;;;;23.42;7.18;;;;;;;;;;5050980;28;20021;-68
2023/01/19 05:43:32;;;;;;;16.63;6.53;;;;;;;;;;5050605;28;20473;-68
2023/01/19 05:45:57;;;;;;;21.55;6.85;;;;;;;;;;5048948;28;20402;-68
2023/01/19 05:48:23;;;;;;;14.47;6.13;;;;;;;;;;5052726;28;20640;-69
2023/01/19 05:50:48;;;;;;;26.73;9.20;;;;;;;;;;5048993;28;20275;-69
2023/01/19 05:53:13;;;;;;;10.93;5.68;;;;;;;;;;5049649;28;20453;-68
2023/01/19 05:55:38;;;;;;;12.65;5.43;;;;;;;;;;5047915;28;20040;-67
2023/01/19 05:58:04;;;;;;;14.43;4.70;;;;;;;;;;5048792;28;20178;-67
2023/01/19 06:00:29;;;;;;;19.27;7.10;;;;;;;;;;5050006;28;20032;-69
2023/01/19 06:02:54;;;;;;;16.88;6.82;;;;;;;;;;5049783;28;20033;-67
2023/01/19 06:05:19;;;;;;;14.70;4.15;;;;;;;;;;5049061;28;20021;-68
2023/01/19 06:07:45;;;;;;;20.95;7.30;;;;;;;;;;5048326;28;20025;-69
2023/01/19 06:10:10;;;;;;;13.15;4.88;;;;;;;;;;5048820;28;20024;-69
2023/01/19 06:12:37;;;;;;;12.88;4.35;;;;;;;;;;5046679;28;20017;-69
2023/01/19 06:15:03;;;;;;;27.42;7.55;;;;;;;;;;5049048;28;20112;-69
2023/01/19 06:17:30;;;;;;;16.15;7.53;;;;;;;;;;5050094;28;20108;-69
2023/01/19 06:19:55;;;;;;;19.35;6.13;;;;;;;;;;5046382;28;20028;-69
2023/01/19 06:22:20;;;;;;;8.50;3.95;;;;;;;;;;5041847;28;20036;-69
2023/01/19 06:24:46;;;;;;;21.70;7.63;;;;;;;;;;5044403;28;20499;-69
2023/01/19 06:27:12;;;;;;;25.27;8.30;;;;;;;;;;5041283;28;20028;-69
2023/01/19 06:29:37;;;;;;;26.15;9.15;;;;;;;;;;5041771;28;20477;-67
2023/01/19 06:32:03;;;;;;;16.50;4.73;;;;;;;;;;5049105;28;20040;-68
2023/01/19 06:34:28;;;;;;;26.48;7.63;;;;;;;;;;5046299;28;20330;-69
2023/01/19 06:36:56;;;;;;;15.13;5.43;;;;;;;;;;5046443;28;20396;-68
2023/01/19 06:39:22;;;;;;;23.35;9.38;;;;;;;;;;5045849;28;20783;-68
2023/01/19 06:41:47;;;;;;;22.25;9.70;;;;;;;;;;5043859;28;20040;-68
2023/01/19 06:44:12;;;;;;;25.48;10.65;;;;;;;;;;5048301;28;20020;-68
2023/01/19 06:46:37;;;;;;;24.42;11.15;;;;;;;;;;5045870;28;20036;-68
2023/01/19 06:49:03;;;;;;;29.08;11.02;;;;;;;;;;5045722;28;20095;-69
2023/01/19 06:51:28;;;;;;;32.28;8.48;;;;;;;;;;5045236;28;20035;-68
2023/01/19 06:53:53;;;;;;;27.67;10.68;;;;;;;;;;5043489;28;20033;-67
2023/01/19 06:56:18;;;;;;;24.53;11.80;;;;;;;;;;5041129;28;20033;-67
2023/01/19 06:58:45;;;;;;;28.80;10.53;;;;;;;;;;5043478;28;20309;-68
2023/01/19 07:01:10;;;;;;;38.97;16.52;;;;;;;;;;5048152;28;20756;-68
2023/01/19 07:03:36;;;;;;;33.17;14.00;;;;;;;;;;5047724;28;20032;-67
2023/01/19 07:06:02;;;;;;;26.45;13.00;;;;;;;;;;5046569;28;20025;-68
2023/01/19 07:08:27;;;;;;;29.10;11.93;;;;;;;;;;5060658;22;20143;-68
2023/01/19 07:10:57;;;;;;;24.58;12.48;;;;;;;;;;5022305;28;20072;-69
2023/01/19 07:13:22;;;;;;;20.90;10.45;;;;;;;;;;5027425;28;20501;-69
2023/01/19 07:15:48;;;;;;;18.13;8.57;;;;;;;;;;5025170;28;20033;-68
2023/01/19 07:18:13;;;;;;;28.90;9.88;;;;;;;;;;5031767;28;20346;-69
2023/01/19 07:20:38;;;;;;;12.95;6.18;;;;;;;;;;5021125;28;20033;-68
2023/01/19 07:23:03;;;;;;;17.23;8.35;;;;;;;;;;5034571;28;20024;-68
2023/01/19 07:25:29;;;;;;;25.80;12.07;;;;;;;;;;5030776;28;20101;-68
2023/01/19 07:27:57;;;;;;;20.95;8.52;;;;;;;;;;5026543;28;20024;-70
2023/01/19 07:30:22;;;;;;;21.05;10.18;;;;;;;;;;5032806;28;20060;-69
2023/01/19 07:32:48;;;;;;;24.83;7.90;;;;;;;;;;5030981;28;20057;-69
2023/01/19 07:35:14;;;;;;;9.67;5.50;;;;;;;;;;5033366;28;20029;-69
2023/01/19 07:37:39;;;;;;;22.55;8.55;;;;;;;;;;5029610;28;20748;-69
2023/01/19 07:40:04;;;;;;;24.35;10.25;;;;;;;;;;5025265;28;20095;-69
2023/01/19 07:42:29;;;;;;;26.80;10.73;;;;;;;;;;5034865;28;20014;-69
2023/01/19 07:44:55;;;;;;;13.43;6.25;;;;;;;;;;5033130;28;20019;-69
2023/01/19 07:47:20;;;;;;;12.90;5.93;;;;;;;;;;5010787;28;20179;-69
2023/01/19 07:49:45;;;;;;;28.10;9.85;;;;;;;;;;5021355;28;20032;-69
2023/01/19 07:52:11;;;;;;;23.45;10.75;;;;;;;;;;5035740;28;20037;-69
2023/01/19 07:54:36;;;;;;;18.30;8.88;;;;;;;;;;5033310;28;20102;-69
2023/01/19 07:57:01;;;;;;;21.05;10.68;;;;;;;;;;5030975;28;20021;-69
2023/01/19 07:59:29;;;;;;;18.90;7.93;;;;;;;;;;5021613;28;20100;-69
2023/01/19 08:01:54;;;;;;;12.88;5.70;;;;;;;;;;5034922;28;20017;-69
2023/01/19 08:04:19;;;;;;;27.73;12.27;;;;;;;;;;5032826;28;20418;-69
2023/01/19 08:06:45;;;;;;;22.55;8.38;;;;;;;;;;5031772;28;20021;-69
2023/01/19 08:09:10;;;;;;;29.67;13.15;;;;;;;;;;5007717;28;20397;-69
2023/01/19 08:11:36;;;;;;;18.08;7.95;;;;;;;;;;5029279;28;20516;-69
2023/01/19 08:14:02;;;;;;;28.10;12.75;;;;;;;;;;5028967;28;20060;-69
2023/01/19 08:16:27;;;;;;;29.73;12.10;;;;;;;;;;5031897;28;20051;-69
2023/01/19 08:18:52;;;;;;;29.30;11.70;;;;;;;;;;5023194;28;20043;-70
2023/01/19 08:21:17;;;;;;;23.35;11.30;;;;;;;;;;5026453;28;20025;-70
2023/01/19 08:23:42;;;;;;;33.90;13.90;;;;;;;;;;5024597;28;20017;-70
2023/01/19 08:26:18;;;;;;;37.85;14.38;;;;;;;;;;5037781;28;20017;-70
2023/01/19 08:28:43;;;;;;;14.23;6.85;;;;;;;;;;5030606;28;20025;-69
2023/01/19 08:31:08;;;;;;;18.83;6.75;;;;;;;;;;5026564;28;20556;-69
2023/01/19 08:33:35;;;;;;;39.72;13.63;;;;;;;;;;5027945;28;20025;-69
2023/01/19 08:36:00;;;;;;;15.32;7.43;;;;;;;;;;5030642;28;20453;-69
2023/01/19 08:38:25;;;;;;;25.90;12.05;;;;;;;;;;5032757;28;20061;-69
2023/01/19 08:40:50;;;;;;;29.77;13.23;;;;;;;;;;5027278;28;20025;-69
2023/01/19 08:43:16;;;;;;;29.33;13.20;;;;;;;;;;5029933;28;20017;-69
2023/01/19 08:45:47;;;;;;;36.45;14.55;;;;;;;;;;5030111;28;20021;-69
2023/01/19 08:48:12;;;;;;;23.58;11.15;;;;;;;;;;5026196;28;20024;-69
2023/01/19 08:50:38;;;;;;;30.85;13.35;;;;;;;;;;5029998;28;20017;-70
2023/01/19 08:53:05;;;;;;;19.20;8.07;;;;;;;;;;5025486;28;20021;-70
2023/01/19 08:55:32;;;;;;;26.23;12.10;;;;;;;;;;5022619;28;20109;-69
2023/01/19 08:57:58;;;;;;;27.52;11.77;;;;;;;;;;5026503;28;20013;-70
2023/01/19 09:00:24;;;;;;;22.23;8.48;;;;;;;;;;5023228;28;20021;-69
2023/01/19 09:02:49;;;;;;;31.70;14.50;;;;;;;;;;5026598;28;20036;-69
2023/01/19 09:05:15;;;;;;;28.42;10.75;;;;;;;;;;5027357;28;20034;-70
2023/01/19 09:07:42;;;;;;;32.80;12.48;;;;;;;;;;5026229;28;20032;-69
2023/01/19 09:10:09;;;;;;;19.30;8.48;;;;;;;;;;5025823;28;20056;-69
2023/01/19 09:12:34;;;;;;;34.60;12.38;;;;;;;;;;5016519;28;20488;-70
2023/01/19 09:14:59;;;;;;;32.60;14.10;;;;;;;;;;5023460;28;20320;-70
2023/01/19 09:17:24;;;;;;;30.70;11.88;;;;;;;;;;5029016;28;20319;-70
2023/01/19 09:19:49;;;;;;;34.95;13.63;;;;;;;;;;5020663;28;20124;-69
2023/01/19 09:22:15;;;;;;;32.33;11.63;;;;;;;;;;5033431;28;20471;-68
2023/01/19 09:24:40;;;;;;;32.67;12.70;;;;;;;;;;5034259;28;20270;-70
2023/01/19 09:27:05;;;;;;;38.20;13.70;;;;;;;;;;5031057;28;20536;-70
2023/01/19 09:29:30;;;;;;;37.03;14.40;;;;;;;;;;5027607;28;20071;-70
2023/01/19 09:31:56;;;;;;;16.75;8.00;;;;;;;;;;5027246;28;20017;-69
2023/01/19 09:34:22;;;;;;;39.22;14.52;;;;;;;;;;5031399;28;20052;-70
2023/01/19 09:36:47;;;;;;;41.97;14.15;;;;;;;;;;5028587;28;20060;-69
2023/01/19 09:39:12;;;;;;;37.80;13.60;;;;;;;;;;5040151;28;20030;-69
2023/01/19 09:41:37;;;;;;;36.97;17.40;;;;;;;;;;5031053;28;20061;-69
2023/01/19 09:44:03;;;;;;;35.97;15.27;;;;;;;;;;5028985;28;20025;-69
2023/01/19 09:46:34;;;;;;;29.15;9.85;;;;;;;;;;5032903;28;20026;-69
2023/01/19 09:49:10;;;;;;;40.60;17.08;;;;;;;;;;5031743;28;20397;-69
2023/01/19 09:51:37;;;;;;;48.13;18.58;;;;;;;;;;5026751;28;20097;-70
2023/01/19 09:54:02;;;;;;;46.58;17.73;;;;;;;;;;5035716;28;20032;-70
2023/01/19 09:56:29;;;;;;;39.80;15.77;;;;;;;;;;5032488;28;20021;-70
2023/01/19 09:58:54;;;;;;;52.42;19.80;;;;;;;;;;5024152;28;20017;-70
2023/01/19 10:01:22;;;;;;;45.42;18.77;;;;;;;;;;5031509;28;20028;-70
2023/01/19 10:03:50;;;;;;;49.60;19.52;;;;;;;;;;5036444;28;20018;-69
2023/01/19 10:06:16;;;;;;;27.60;10.90;;;;;;;;;;5027542;28;20091;-69
2023/01/19 10:08:41;;;;;;;58.65;21.58;;;;;;;;;;5014563;28;20493;-69
2023/01/19 10:11:25;;;;;;;56.75;20.88;;;;;;;;;;5029605;28;20025;-68
2023/01/19 10:13:53;;;;;;;51.70;18.52;;;;;;;;;;5011125;28;20277;-68
2023/01/19 10:16:33;;;;;;;44.38;17.42;;;;;;;;;;5033110;28;20032;-68
2023/01/19 10:19:22;;;;;;;59.08;20.58;;;;;;;;;;5028113;28;20063;-68
2023/01/19 10:21:49;;;;;;;66.28;21.58;;;;;;;;;;5021531;28;20078;-69
2023/01/19 10:24:19;;;;;;;64.03;22.25;;;;;;;;;;5030334;28;20108;-69
2023/01/19 10:26:47;;;;;;;48.05;18.52;;;;;;;;;;5034908;28;20014;-70
2023/01/19 10:29:19;;;;;;;45.75;14.80;;;;;;;;;;5032171;28;20026;-70
2023/01/19 10:31:45;;;;;;;47.78;18.75;;;;;;;;;;5033474;28;20338;-69
2023/01/19 10:34:16;;;;;;;61.50;21.50;;;;;;;;;;5025016;28;20025;-70
2023/01/19 10:36:42;;;;;;;64.85;23.10;;;;;;;;;;5026915;28;20534;-70
2023/01/19 10:39:10;;;;;;;61.28;21.88;;;;;;;;;;5028225;28;20068;-70
2023/01/19 10:41:39;;;;;;;65.53;24.95;;;;;;;;;;5029174;28;20059;-70
2023/01/19 10:44:04;;;;;;;32.90;13.48;;;;;;;;;;5027844;28;20370;-70
2023/01/19 10:46:32;;;;;;;47.17;16.02;;;;;;;;;;5026631;28;20026;-70
2023/01/19 10:48:58;;;;;;;66.25;24.85;;;;;;;;;;5026617;28;20382;-70
2023/01/19 10:51:23;;;;;;;64.53;21.00;;;;;;;;;;5028542;28;20029;-69
2023/01/19 10:53:56;;;;;;;73.03;24.02;;;;;;;;;;5026787;28;20052;-69
2023/01/19 10:56:23;;;;;;;73.60;26.08;;;;;;;;;;5023618;28;20060;-70
2023/01/19 10:58:48;;;;;;;70.45;24.70;;;;;;;;;;5033124;28;20033;-70
2023/01/19 11:01:21;;;;;;;64.35;22.63;;;;;;;;;;5026171;28;20457;-70
2023/01/19 11:03:47;;;;;;;61.78;20.52;;;;;;;;;;5034237;28;20465;-70
2023/01/19 11:06:12;;;;;;;49.70;19.42;;;;;;;;;;5027565;28;20080;-69
2023/01/19 11:08:37;;;;;;;73.60;26.42;;;;;;;;;;5025347;28;20087;-70
2023/01/19 11:11:04;;;;;;;61.45;19.55;;;;;;;;;;5020011;28;20057;-70
2023/01/19 11:13:29;;;;;;;50.92;19.58;;;;;;;;;;5025972;28;20030;-70
2023/01/19 11:15:58;;;;;;;63.42;22.40;;;;;;;;;;5028195;28;20087;-70
2023/01/19 11:18:31;;;;;;;48.95;18.58;;;;;;;;;;5031881;28;20565;-69
2023/01/19 11:20:58;;;;;;;55.08;19.73;;;;;;;;;;5021734;28;20033;-70
2023/01/19 11:23:27;;;;;;;54.85;18.08;;;;;;;;;;5028185;28;20104;-70
2023/01/19 11:25:55;;;;;;;62.28;21.08;;;;;;;;;;5030621;28;20026;-70
2023/01/19 11:28:23;;;;;;;59.95;21.15;;;;;;;;;;5026425;28;20013;-70
2023/01/19 11:30:53;;;;;;;63.70;19.13;;;;;;;;;;5038435;28;20017;-69
2023/01/19 11:33:22;;;;;;;70.22;25.08;;;;;;;;;;5033428;28;20422;-70
2023/01/19 11:35:48;;;;;;;53.05;21.73;;;;;;;;;;5027139;28;20032;-69
2023/01/19 11:38:18;;;;;;;53.47;19.30;;;;;;;;;;5027051;28;20025;-70
2023/01/19 11:41:05;;;;;;;62.47;17.52;;;;;;;;;;5024255;28;20018;-69
2023/01/19 11:43:30;;;;;;;69.10;20.67;;;;;;;;;;5033557;28;20021;-70
2023/01/19 11:45:56;;;;;;;51.83;19.10;;;;;;;;;;5022917;28;20017;-70
2023/01/19 11:48:27;;;;;;;62.00;19.02;;;;;;;;;;5027813;28;20105;-70
2023/01/19 11:50:53;;;;;;;61.95;19.45;;;;;;;;;;5031455;28;20490;-69
2023/01/19 11:53:23;;;;;;;50.35;17.90;;;;;;;;;;5026327;28;20032;-70
2023/01/19 11:55:53;;;;;;;64.10;20.08;;;;;;;;;;5029298;28;20017;-69
2023/01/19 11:58:19;;;;;;;57.33;18.05;;;;;;;;;;5007940;28;20037;-70
2023/01/19 12:00:53;;;;;;;54.28;20.42;;;;;;;;;;5030273;28;20524;-69
2023/01/19 12:03:30;;;;;;;58.00;18.27;;;;;;;;;;5026273;28;20083;-69
2023/01/19 12:06:24;;;;;;;52.90;17.58;;;;;;;;;;5027414;28;20048;-70
2023/01/19 12:08:55;;;;;;;48.58;18.42;;;;;;;;;;5004523;28;20488;-70
2023/01/19 12:11:24;;;;;;;46.55;18.23;;;;;;;;;;5029176;28;20028;-70
2023/01/19 12:13:51;;;;;;;69.47;19.98;;;;;;;;;;5031555;28;20032;-70
2023/01/19 12:16:18;;;;;;;55.88;18.55;;;;;;;;;;5029823;28;20104;-70
2023/01/19 12:18:46;;;;;;;65.90;19.50;;;;;;;;;;5035010;28;20048;-70
2023/01/19 12:21:11;;;;;;;66.65;18.35;;;;;;;;;;5023237;28;20036;-70
2023/01/19 12:23:36;;;;;;;66.70;23.77;;;;;;;;;;5038673;28;20025;-70
2023/01/19 12:26:05;;;;;;;57.63;21.25;;;;;;;;;;5027580;28;20059;-70
2023/01/19 12:28:31;;;;;;;60.58;21.88;;;;;;;;;;5026854;28;20029;-70
2023/01/19 12:30:58;;;;;;;61.17;19.13;;;;;;;;;;5024657;28;20041;-70
2023/01/19 12:33:35;;;;;;;58.95;18.40;;;;;;;;;;5023391;28;20105;-70
2023/01/19 12:36:05;;;;;;;53.67;20.17;;;;;;;;;;5020957;28;20017;-71
2023/01/19 12:38:35;;;;;;;51.97;18.48;;;;;;;;;;5028098;28;20112;-71
2023/01/19 12:41:15;;;;;;;58.88;19.17;;;;;;;;;;5022623;28;20100;-71
2023/01/19 12:43:40;;;;;;;65.50;20.77;;;;;;;;;;5023967;28;20025;-71
2023/01/19 12:46:24;;;;;;;53.35;18.25;;;;;;;;;;5003088;28;20036;-71
2023/01/19 12:48:49;;;;;;;43.95;15.75;;;;;;;;;;5028588;28;20450;-71
2023/01/19 12:51:27;;;;;;;50.58;17.13;;;;;;;;;;5027531;28;20072;-71
2023/01/19 12:53:53;;;;;;;39.67;15.93;;;;;;;;;;5029462;28;20025;-70
2023/01/19 12:56:25;;;;;;;53.45;21.67;;;;;;;;;;5028826;28;20033;-71
2023/01/19 12:58:50;;;;;;;48.55;16.33;;;;;;;;;;5032168;28;20025;-71
2023/01/19 13:01:18;;;;;;;56.38;17.25;;;;;;;;;;5032395;28;20094;-71
2023/01/19 13:03:56;;;;;;;56.13;21.90;;;;;;;;;;5033713;28;20022;-71
2023/01/19 13:06:41;;;;;;;45.97;15.70;;;;;;;;;;5038712;28;20014;-71
2023/01/19 13:09:25;;;;;;;43.22;17.60;;;;;;;;;;5031221;28;20486;-70
2023/01/19 13:12:29;;;;;;;43.75;14.73;;;;;;;;;;5021014;28;20030;-70
2023/01/19 13:15:13;;;;;;;50.95;16.75;;;;;;;;;;4970694;28;20023;-70
2023/01/19 13:17:47;;;;;;;59.88;20.08;;;;;;;;;;4968357;28;20034;-70
2023/01/19 13:20:32;;;;;;;49.88;18.23;;;;;;;;;;5006471;28;20046;-70
2023/01/19 13:23:15;;;;;;;49.33;17.52;;;;;;;;;;5005816;28;20478;-69
2023/01/19 13:25:46;;;;;;;43.35;15.55;;;;;;;;;;5028621;28;20144;-70
2023/01/19 13:28:13;;;;;;;55.88;17.88;;;;;;;;;;5032634;28;20030;-69
2023/01/19 13:30:43;;;;;;;46.88;16.08;;;;;;;;;;5032198;28;20079;-70
2023/01/19 13:33:14;;;;;;;35.72;11.73;;;;;;;;;;5015216;28;20017;-70
2023/01/19 13:35:46;;;;;;;42.55;13.18;;;;;;;;;;5031826;28;20482;-70
2023/01/19 13:38:12;;;;;;;35.15;12.93;;;;;;;;;;5014917;28;20465;-70
2023/01/19 13:40:38;;;;;;;34.97;13.35;;;;;;;;;;5029966;28;20044;-70
2023/01/19 13:43:06;;;;;;;36.90;14.02;;;;;;;;;;5031591;28;20045;-70
2023/01/19 13:45:33;;;;;;;32.60;14.55;;;;;;;;;;5027699;28;20076;-71
2023/01/19 13:48:04;;;;;;;25.00;9.63;;;;;;;;;;5032144;28;20137;-69
2023/01/19 13:50:31;;;;;;;40.80;14.73;;;;;;;;;;5034964;28;20214;-71
2023/01/19 13:52:57;;;;;;;40.45;15.40;;;;;;;;;;5031224;28;20433;-71
2023/01/19 13:55:23;;;;;;;31.77;10.80;;;;;;;;;;5029407;28;20022;-72
2023/01/19 13:57:49;;;;;;;48.33;15.30;;;;;;;;;;5027405;28;20029;-71
2023/01/19 14:00:17;;;;;;;40.55;14.75;;;;;;;;;;5024276;28;20029;-71
2023/01/19 14:03:12;;;;;;;53.90;17.08;;;;;;;;;;5034678;28;20028;-71
2023/01/19 14:05:38;;;;;;;54.83;18.92;;;;;;;;;;5029888;28;20618;-71
2023/01/19 14:08:10;;;;;;;42.15;17.63;;;;;;;;;;5026306;28;20033;-71
2023/01/19 14:10:36;;;;;;;45.95;17.75;;;;;;;;;;5013150;28;20024;-71
2023/01/19 14:13:20;;;;;;;49.83;16.70;;;;;;;;;;5030937;28;20025;-70
2023/01/19 14:15:47;;;;;;;41.85;13.80;;;;;;;;;;5026269;28;20017;-70
2023/01/19 14:18:15;;;;;;;47.72;16.45;;;;;;;;;;5012771;28;20061;-70
2023/01/19 14:20:40;;;;;;;41.13;11.32;;;;;;;;;;5025876;28;20026;-70
2023/01/19 14:23:25;;;;;;;40.83;15.48;;;;;;;;;;5026604;28;20028;-70
2023/01/19 14:25:50;;;;;;;46.78;16.42;;;;;;;;;;5031233;28;20025;-69
2023/01/19 14:28:34;;;;;;;52.05;17.05;;;;;;;;;;5023823;28;20022;-70
2023/01/19 14:31:00;;;;;;;56.55;20.35;;;;;;;;;;5029247;28;20017;-70
2023/01/19 14:33:38;;;;;;;53.83;21.00;;;;;;;;;;5029258;28;20025;-70
2023/01/19 14:36:07;;;;;;;59.30;25.58;;;;;;;;;;5033250;28;20025;-70
2023/01/19 14:38:33;;;;;;;67.55;24.52;;;;;;;;;;5027399;28;20032;-70
2023/01/19 14:40:58;;;;;;;54.15;19.48;;;;;;;;;;5032777;28;20022;-70